createdAt,value
2023-02-27T00:02:18.931Z,1.98
2023-02-27T00:07:15.351Z,1.65
2023-02-27T00:12:12.105Z,1.50
2023-02-27T00:17:08.604Z,1.27
2023-02-27T00:22:05.286Z,1.92
2023-02-27T00:27:01.806Z,1.80
2023-02-27T00:31:58.268Z,1.42
2023-02-27T00:36:54.710Z,1.75
2023-02-27T00:41:51.044Z,1.60
2023-02-27T00:46:47.474Z,2.00
2023-02-27T00:51:43.855Z,2.78
2023-02-27T00:56:41.114Z,1.70
2023-02-27T01:01:37.767Z,1.85
2023-02-27T01:06:34.155Z,1.73
2023-02-27T01:11:30.797Z,1.77
2023-02-27T01:16:27.399Z,1.50
2023-02-27T01:21:24.856Z,1.95
2023-02-27T01:26:21.539Z,1.92
2023-02-27T01:31:18.012Z,1.42
2023-02-27T01:36:14.389Z,1.90
2023-02-27T01:41:11.039Z,2.10
2023-02-27T01:46:07.399Z,2.28
2023-02-27T01:51:09.069Z,2.08
2023-02-27T01:56:10.406Z,1.80
2023-02-27T02:01:07.070Z,2.25
2023-02-27T02:06:06.033Z,2.00
2023-02-27T02:16:26.268Z,1.52
2023-02-27T02:21:49.636Z,1.77
2023-02-27T02:26:53.445Z,1.88
2023-02-27T02:32:08.713Z,1.70
2023-02-27T02:37:31.026Z,2.08
2023-02-27T02:42:39.624Z,1.70
2023-02-27T02:48:04.523Z,1.92
2023-02-27T02:53:08.441Z,1.55
2023-02-27T02:58:14.595Z,1.88
2023-02-27T03:03:26.113Z,1.77
2023-02-27T03:08:28.451Z,1.52
2023-02-27T03:13:30.982Z,1.80
2023-02-27T03:18:34.829Z,1.65
2023-02-27T03:23:38.250Z,2.03
2023-02-27T03:28:39.315Z,1.73
2023-02-27T03:33:42.438Z,1.80
2023-02-27T03:39:05.567Z,1.92
2023-02-27T03:44:16.913Z,2.10
2023-02-27T03:49:13.276Z,2.38
2023-02-27T03:54:16.869Z,1.88
2023-02-27T03:59:13.957Z,1.77
2023-02-27T04:04:13.565Z,1.42
2023-02-27T04:09:43.030Z,1.85
2023-02-27T04:14:52.164Z,2.38
2023-02-27T04:20:17.322Z,2.40
2023-02-27T04:25:39.442Z,2.15
2023-02-27T04:31:02.277Z,1.60
2023-02-27T04:36:18.455Z,1.80
2023-02-27T04:41:23.059Z,2.08
2023-02-27T04:46:24.664Z,1.67
2023-02-27T04:51:26.490Z,1.77
2023-02-27T04:56:35.282Z,2.53
2023-02-27T05:01:36.901Z,2.00
2023-02-27T05:06:36.612Z,1.92
2023-02-27T05:11:42.736Z,1.77
2023-02-27T05:16:44.539Z,2.33
2023-02-27T05:22:24.420Z,2.20
2023-02-27T05:27:35.997Z,2.95
2023-02-27T05:32:45.081Z,2.92
2023-02-27T05:37:56.124Z,4.25
2023-02-27T05:43:02.814Z,3.85
2023-02-27T05:48:04.890Z,3.42
2023-02-27T05:53:04.498Z,3.05
2023-02-27T05:58:10.167Z,2.58
2023-02-27T06:03:06.721Z,2.65
2023-02-27T06:08:03.745Z,2.35
2023-02-27T06:13:00.092Z,2.78
2023-02-27T06:17:56.620Z,2.58
2023-02-27T06:22:52.979Z,2.88
2023-02-27T06:27:49.382Z,3.17
2023-02-27T06:32:47.046Z,3.13
2023-02-27T06:37:43.400Z,3.17
2023-02-27T06:42:44.001Z,3.00
2023-02-27T06:47:41.197Z,3.85
2023-02-27T06:52:38.932Z,3.20
2023-02-27T06:57:35.526Z,3.42
2023-02-27T07:02:32.129Z,3.92
2023-02-27T07:07:33.199Z,3.42
2023-02-27T07:12:32.943Z,3.60
2023-02-27T07:17:29.408Z,3.88
2023-02-27T07:22:25.716Z,4.15
2023-02-27T07:27:22.073Z,3.35
2023-02-27T07:32:18.407Z,3.58
2023-02-27T07:37:15.005Z,3.72
2023-02-27T07:42:11.493Z,3.08
2023-02-27T07:47:07.900Z,4.47
2023-02-27T07:52:04.316Z,3.40
2023-02-27T07:57:00.992Z,3.85
2023-02-27T08:01:57.352Z,3.97
2023-02-27T08:06:53.663Z,3.42
2023-02-27T08:11:50.037Z,3.90
2023-02-27T08:16:46.328Z,3.60
2023-02-27T08:21:42.966Z,3.95
2023-02-27T08:26:39.379Z,3.60
2023-02-27T08:31:35.824Z,4.05
2023-02-27T08:36:32.460Z,3.33
2023-02-27T08:41:28.763Z,3.38
2023-02-27T08:46:25.448Z,3.55
2023-02-27T08:51:22.352Z,3.13
2023-02-27T08:56:18.750Z,3.47
2023-02-27T09:01:15.103Z,3.75
2023-02-27T09:06:11.704Z,3.78
2023-02-27T09:11:08.113Z,2.95
2023-02-27T09:16:04.808Z,3.22
2023-02-27T09:21:01.191Z,2.65
2023-02-27T09:25:57.560Z,2.42
2023-02-27T09:30:53.928Z,2.28
2023-02-27T09:35:50.230Z,2.60
2023-02-27T09:40:49.725Z,2.28
2023-02-27T09:45:50.164Z,2.10
2023-02-27T09:50:52.437Z,2.10
2023-02-27T09:55:50.111Z,2.33
2023-02-27T10:00:57.406Z,2.22
2023-02-27T10:06:27.515Z,1.77
2023-02-27T10:11:44.575Z,2.00
2023-02-27T10:16:42.420Z,2.63
2023-02-27T10:21:43.397Z,1.98
2023-02-27T10:26:43.733Z,2.00
2023-02-27T10:31:41.106Z,1.63
2023-02-27T10:36:37.657Z,1.70
2023-02-27T10:41:36.182Z,1.70
2023-02-27T10:46:38.619Z,1.33
2023-02-27T10:51:38.476Z,1.40
2023-02-27T10:56:35.630Z,1.83
2023-02-27T11:01:44.395Z,2.63
2023-02-27T11:06:42.223Z,1.80
2023-02-27T11:11:39.197Z,1.70
2023-02-27T11:16:50.163Z,1.83
2023-02-27T11:22:00.188Z,1.90
2023-02-27T11:26:59.712Z,1.30
2023-02-27T11:32:13.415Z,1.13
2023-02-27T11:37:30.559Z,1.42
2023-02-27T11:42:32.149Z,1.33
2023-02-27T11:47:33.322Z,1.50
2023-02-27T11:52:49.497Z,1.50
2023-02-27T11:57:50.550Z,1.42
2023-02-27T12:03:02.491Z,1.60
2023-02-27T12:08:13.816Z,1.38
2023-02-27T12:13:26.026Z,1.13
2023-02-27T12:18:35.763Z,1.40
2023-02-27T12:23:47.756Z,1.33
2023-02-27T12:29:17.578Z,1.23
2023-02-27T12:34:35.873Z,1.30
2023-02-27T12:39:33.178Z,1.20
2023-02-27T12:44:54.100Z,1.40
2023-02-27T12:50:00.483Z,1.25
2023-02-27T12:55:13.258Z,1.42
2023-02-27T13:00:22.324Z,1.55
2023-02-27T13:05:24.816Z,1.10
2023-02-27T13:10:34.408Z,1.42
2023-02-27T13:15:37.152Z,1.30
2023-02-27T13:20:44.438Z,1.33
2023-02-27T13:25:44.870Z,1.00
2023-02-27T13:31:17.228Z,1.05
2023-02-27T13:36:25.423Z,1.15
2023-02-27T13:41:24.476Z,0.95
2023-02-27T13:46:32.215Z,0.80
2023-02-27T13:51:50.809Z,1.20
2023-02-27T13:56:51.162Z,1.05
2023-02-27T14:02:16.761Z,1.05
2023-02-27T14:07:18.644Z,1.35
2023-02-27T14:12:46.372Z,1.50
2023-02-27T14:17:45.479Z,1.10
2023-02-27T14:27:44.096Z,1.27
2023-02-27T14:32:40.757Z,1.10
2023-02-27T14:37:37.267Z,1.20
2023-02-27T14:43:03.932Z,1.40
2023-02-27T14:48:00.496Z,1.27
2023-02-27T14:52:56.947Z,1.20
2023-02-27T14:58:17.847Z,1.55
2023-02-27T15:03:22.585Z,1.38
2023-02-27T15:08:26.945Z,0.90
2023-02-27T15:13:34.550Z,1.75
2023-02-27T15:18:30.950Z,1.35
2023-02-27T15:23:28.700Z,1.67
2023-02-27T15:28:30.318Z,1.30
2023-02-27T15:33:32.359Z,1.30
2023-02-27T15:38:35.134Z,1.40
2023-02-27T15:43:31.948Z,1.20
2023-02-27T15:48:29.812Z,0.90
2023-02-27T15:53:27.995Z,1.13
2023-02-27T15:58:34.134Z,1.20
2023-02-27T16:03:43.940Z,0.90
2023-02-27T16:08:46.506Z,1.17
2023-02-27T16:13:42.865Z,1.40
2023-02-27T16:18:48.615Z,1.15
2023-02-27T16:23:46.456Z,1.50
2023-02-27T16:28:55.747Z,2.13
2023-02-27T16:33:53.840Z,0.90
2023-02-27T16:38:50.286Z,1.00
2023-02-27T16:43:47.839Z,1.13
2023-02-27T16:48:44.207Z,0.82
2023-02-27T16:53:40.753Z,1.20
2023-02-27T16:58:37.750Z,1.00
2023-02-27T17:03:34.844Z,1.10
2023-02-27T17:08:31.340Z,1.38
2023-02-27T17:13:27.745Z,1.33
2023-02-27T17:18:24.168Z,1.45
2023-02-27T17:23:20.498Z,1.63
2023-02-27T17:28:16.836Z,1.20
2023-02-27T17:33:13.228Z,1.27
2023-02-27T17:38:09.759Z,1.33
2023-02-27T17:43:06.439Z,1.90
2023-02-27T17:48:02.924Z,0.88
2023-02-27T17:52:59.329Z,1.20
2023-02-27T17:57:55.675Z,1.20
2023-02-27T18:02:52.066Z,2.03
2023-02-27T18:07:48.613Z,1.45
2023-02-27T18:12:45.151Z,1.60
2023-02-27T18:17:43.422Z,2.17
2023-02-27T18:22:39.906Z,1.95
2023-02-27T18:27:36.444Z,1.45
2023-02-27T18:32:32.865Z,1.85
2023-02-27T18:37:29.270Z,2.33
2023-02-27T18:42:25.703Z,1.88
2023-02-27T18:47:22.060Z,1.48
2023-02-27T18:52:18.593Z,1.35
2023-02-27T18:57:15.565Z,1.90
2023-02-27T19:02:17.621Z,1.73
2023-02-27T19:07:15.272Z,1.63
2023-02-27T19:12:11.668Z,1.95
2023-02-27T19:17:08.835Z,2.30
2023-02-27T19:22:05.268Z,1.63
2023-02-27T19:27:01.699Z,2.13
2023-02-27T19:31:58.144Z,2.38
2023-02-27T19:36:54.575Z,1.67
2023-02-27T19:41:50.978Z,1.98
2023-02-27T19:46:51.268Z,2.00
2023-02-27T19:51:47.792Z,1.50
2023-02-27T19:56:44.455Z,1.85
2023-02-27T20:01:41.460Z,1.70
2023-02-27T20:06:41.584Z,1.92
2023-02-27T20:11:38.018Z,2.22
2023-02-27T20:16:36.720Z,1.75
2023-02-27T20:21:34.326Z,2.05
2023-02-27T20:26:34.112Z,2.10
2023-02-27T20:31:32.603Z,2.65
2023-02-27T20:36:29.270Z,2.90
2023-02-27T20:41:29.052Z,2.70
2023-02-27T20:46:28.496Z,2.20
2023-02-27T20:56:24.553Z,2.85
2023-02-27T21:01:21.961Z,2.70
2023-02-27T21:06:19.116Z,2.72
2023-02-27T21:11:18.099Z,2.17
2023-02-27T21:21:15.732Z,2.13
2023-02-27T21:26:20.998Z,2.20
2023-02-27T21:31:19.672Z,2.80
2023-02-27T21:36:16.995Z,3.63
2023-02-27T21:41:13.381Z,2.50
2023-02-27T21:46:12.623Z,2.50
2023-02-27T21:51:09.386Z,2.17
2023-02-27T21:56:08.166Z,2.65
2023-02-27T22:01:15.823Z,2.05
2023-02-27T22:06:13.775Z,2.03
2023-02-27T22:11:10.737Z,2.38
2023-02-27T22:16:10.075Z,1.95
2023-02-27T22:21:18.975Z,2.20
2023-02-27T22:31:18.490Z,1.60
2023-02-27T22:36:18.373Z,2.00
2023-02-27T22:41:27.068Z,1.60
2023-02-27T22:51:21.577Z,1.58
2023-02-27T22:56:18.427Z,2.30
2023-02-27T23:01:17.857Z,2.45
2023-02-27T23:06:17.038Z,2.03
2023-02-27T23:11:15.019Z,2.13
2023-02-27T23:16:12.375Z,1.85
2023-02-27T23:21:10.184Z,2.00
2023-02-27T23:26:06.891Z,1.83
2023-02-27T23:31:05.496Z,2.08
2023-02-27T23:36:03.001Z,1.65
2023-02-27T23:41:05.485Z,2.05
2023-02-27T23:46:09.740Z,4.30
2023-02-27T23:51:07.505Z,2.60
2023-02-27T23:56:24.987Z,2.60
